createdAt,value
2017-08-13T00:00:02.666Z,11.9
2017-08-13T00:15:03.287Z,11.9
2017-08-13T00:30:02.995Z,11.9
2017-08-13T00:45:02.642Z,11.9
2017-08-13T01:00:03.254Z,11.9
2017-08-13T01:15:02.901Z,11.9
2017-08-13T01:30:02.867Z,11.9
2017-08-13T01:45:03.635Z,11.9
2017-08-13T02:00:03.411Z,11.9
2017-08-13T02:15:03.015Z,11.9
2017-08-13T02:30:03.051Z,11.9
2017-08-13T02:45:03.068Z,11.9
2017-08-13T03:00:03.922Z,11.9
2017-08-13T03:15:03.772Z,11.8
2017-08-13T03:30:03.885Z,11.8
2017-08-13T03:45:03.345Z,11.8
2017-08-13T04:00:04.298Z,11.8
2017-08-13T04:15:03.438Z,11.8
2017-08-13T04:30:04.547Z,11.8
2017-08-13T04:45:03.641Z,11.8
2017-08-13T05:00:04.615Z,11.8
2017-08-13T05:15:03.246Z,11.8
2017-08-13T05:30:03.393Z,11.8
2017-08-13T05:45:03.488Z,11.8
2017-08-13T06:00:05.471Z,11.8
2017-08-13T06:15:03.444Z,11.8
2017-08-13T06:30:04.492Z,11.8
2017-08-13T06:45:03.272Z,11.8
2017-08-13T07:00:03.905Z,11.8
2017-08-13T07:15:02.955Z,11.8
2017-08-13T07:30:03.074Z,11.8
2017-08-13T07:45:03.146Z,11.8
2017-08-13T08:00:03.941Z,11.8
2017-08-13T08:15:03.111Z,11.9
2017-08-13T08:30:02.945Z,11.9
2017-08-13T08:45:02.879Z,11.9
2017-08-13T09:00:04.328Z,12
2017-08-13T09:15:03.931Z,12.1
2017-08-13T09:30:03.674Z,12.1
2017-08-13T09:45:03.694Z,12.2
2017-08-13T10:00:03.846Z,12.2
2017-08-13T10:15:03.149Z,12.2
2017-08-13T10:30:03.123Z,12.2
2017-08-13T10:45:02.886Z,12.3
2017-08-13T11:00:04.844Z,12.3
2017-08-13T11:15:03.925Z,12.4
2017-08-13T11:30:03.896Z,12.4
2017-08-13T11:45:03.981Z,12.4
2017-08-13T12:00:03.519Z,12.5
2017-08-13T12:15:04.057Z,12.5
2017-08-13T12:30:03.431Z,12.6
2017-08-13T12:45:03.234Z,12.6
2017-08-13T13:00:03.530Z,12.7
2017-08-13T13:15:03.707Z,12.7
2017-08-13T13:30:03.897Z,12.7
2017-08-13T13:45:03.749Z,12.8
2017-08-13T14:00:04.544Z,12.8
2017-08-13T14:15:04.219Z,12.8
2017-08-13T14:30:03.170Z,12.8
2017-08-13T14:45:03.279Z,12.8
2017-08-13T15:00:04.280Z,12.8
2017-08-13T15:15:03.529Z,12.8
2017-08-13T15:30:03.807Z,12.8
2017-08-13T15:45:03.648Z,12.9
2017-08-13T16:00:03.621Z,12.9
2017-08-13T16:15:02.953Z,12.9
2017-08-13T16:30:03.257Z,12.9
2017-08-13T16:45:03.795Z,12.9
2017-08-13T17:00:02.958Z,12.9
2017-08-13T17:15:02.831Z,12.8
2017-08-13T17:30:03.888Z,12.8
2017-08-13T17:45:03.028Z,12.8
2017-08-13T18:00:04.960Z,12.8
2017-08-13T18:15:02.758Z,12.8
2017-08-13T18:30:03.753Z,12.7
2017-08-13T18:45:03.904Z,12.7
2017-08-13T19:00:04.363Z,12.6
2017-08-13T19:15:03.310Z,12.6
2017-08-13T19:30:03.718Z,12.6
2017-08-13T19:45:03.676Z,12.6
2017-08-13T20:00:03.899Z,12.6
2017-08-13T20:15:03.880Z,12.6
2017-08-13T20:30:03.201Z,12.6
2017-08-13T20:45:03.376Z,12.6
2017-08-13T21:00:03.700Z,12.5
2017-08-13T21:15:02.766Z,12.5
2017-08-13T21:30:04.313Z,12.5
2017-08-13T21:45:03.128Z,12.5
2017-08-13T22:00:07.332Z,12.5
2017-08-13T22:15:03.616Z,12.5
2017-08-13T22:30:04.282Z,12.4
2017-08-13T22:45:03.754Z,12.4
2017-08-13T23:00:05.996Z,12.4
2017-08-13T23:15:03.661Z,12.4
2017-08-13T23:30:03.578Z,12.4
2017-08-13T23:45:03.756Z,12.4
